createdAt,value
2018-08-17T00:00:31.986Z,51.10
2018-08-17T00:03:00.956Z,51.30
2018-08-17T00:05:29.611Z,51.20
2018-08-17T00:07:58.250Z,50.90
2018-08-17T00:10:26.909Z,51.00
2018-08-17T00:12:55.581Z,51.50
2018-08-17T00:15:24.281Z,51.30
2018-08-17T00:17:52.939Z,51.00
2018-08-17T00:20:21.603Z,51.40
2018-08-17T00:22:50.288Z,51.50
2018-08-17T00:25:18.944Z,51.40
2018-08-17T00:27:47.800Z,51.80
2018-08-17T00:30:16.470Z,51.80
2018-08-17T00:32:45.118Z,51.70
2018-08-17T00:35:13.789Z,51.50
2018-08-17T00:37:42.428Z,51.60
2018-08-17T00:40:11.114Z,52.10
2018-08-17T00:42:39.774Z,52.20
2018-08-17T00:45:08.424Z,51.60
2018-08-17T00:47:37.112Z,51.80
2018-08-17T00:50:05.972Z,52.40
2018-08-17T00:52:34.610Z,52.20
2018-08-17T00:55:03.280Z,52.50
2018-08-17T00:57:31.938Z,52.60
2018-08-17T01:00:00.610Z,52.30
2018-08-17T01:02:29.272Z,52.30
2018-08-17T01:04:57.926Z,52.40
2018-08-17T01:07:26.660Z,52.40
2018-08-17T01:09:55.322Z,52.70
2018-08-17T01:12:24.038Z,52.90
2018-08-17T01:14:52.696Z,52.40
2018-08-17T01:17:21.324Z,52.50
2018-08-17T01:19:49.980Z,52.20
2018-08-17T01:22:18.632Z,52.20
2018-08-17T01:24:47.275Z,52.00
2018-08-17T01:27:15.938Z,52.30
2018-08-17T01:29:44.583Z,52.20
2018-08-17T01:32:13.280Z,52.10
2018-08-17T01:34:41.919Z,52.30
2018-08-17T01:37:10.567Z,52.00
2018-08-17T01:39:39.194Z,52.30
2018-08-17T01:42:07.838Z,52.40
2018-08-17T01:44:36.487Z,52.30
2018-08-17T01:47:05.182Z,52.10
2018-08-17T01:49:33.843Z,52.10
2018-08-17T01:52:02.508Z,51.90
2018-08-17T01:54:31.211Z,51.70
2018-08-17T01:56:59.853Z,52.20
2018-08-17T01:59:28.496Z,51.80
2018-08-17T02:01:57.158Z,52.00
2018-08-17T02:04:25.813Z,52.20
2018-08-17T02:06:54.456Z,52.30
2018-08-17T02:09:23.127Z,52.10
2018-08-17T02:11:51.771Z,52.00
2018-08-17T02:14:20.417Z,52.30
2018-08-17T02:16:49.085Z,52.60
2018-08-17T02:19:17.739Z,52.90
2018-08-17T02:21:46.410Z,52.70
2018-08-17T02:24:15.084Z,53.20
2018-08-17T02:26:43.699Z,53.10
2018-08-17T02:29:12.375Z,52.90
2018-08-17T02:31:41.023Z,52.90
2018-08-17T02:34:09.659Z,53.10
2018-08-17T02:36:38.311Z,53.20
2018-08-17T02:39:07.593Z,53.40
2018-08-17T02:41:36.288Z,53.20
2018-08-17T02:44:04.951Z,53.60
2018-08-17T02:46:33.605Z,54.00
2018-08-17T02:49:02.305Z,54.00
2018-08-17T02:51:30.987Z,54.10
2018-08-17T02:53:59.689Z,54.10
2018-08-17T02:56:28.348Z,54.00
2018-08-17T02:58:57.000Z,54.60
2018-08-17T03:01:25.680Z,54.10
2018-08-17T03:03:54.323Z,54.00
2018-08-17T03:06:22.998Z,54.00
2018-08-17T03:08:51.635Z,54.00
2018-08-17T03:11:20.325Z,54.00
2018-08-17T03:13:49.076Z,54.00
2018-08-17T03:16:17.710Z,53.90
2018-08-17T03:18:46.356Z,54.30
2018-08-17T03:21:15.008Z,54.60
2018-08-17T03:23:43.673Z,55.20
2018-08-17T03:26:12.363Z,55.20
2018-08-17T03:28:41.028Z,55.60
2018-08-17T03:31:09.704Z,55.30
2018-08-17T03:33:38.360Z,55.50
2018-08-17T03:36:07.024Z,55.80
2018-08-17T03:38:35.700Z,55.30
2018-08-17T03:41:04.350Z,55.40
2018-08-17T03:43:33.099Z,55.30
2018-08-17T03:46:01.783Z,55.10
2018-08-17T03:48:30.424Z,55.30
2018-08-17T03:50:59.087Z,55.10
2018-08-17T03:53:27.757Z,55.00
2018-08-17T03:55:56.401Z,54.70
2018-08-17T03:58:25.250Z,55.00
2018-08-17T04:00:54.116Z,55.00
2018-08-17T04:03:22.761Z,55.40
2018-08-17T04:05:51.389Z,55.40
2018-08-17T04:08:20.054Z,55.60
2018-08-17T04:10:48.687Z,55.90
2018-08-17T04:13:17.327Z,55.70
2018-08-17T04:15:46.009Z,56.10
2018-08-17T04:18:14.685Z,56.20
2018-08-17T04:20:43.324Z,56.10
2018-08-17T04:23:12.001Z,56.40
2018-08-17T04:25:40.732Z,56.40
2018-08-17T04:28:09.527Z,56.90
2018-08-17T04:30:38.180Z,56.60
2018-08-17T04:33:06.816Z,56.90
2018-08-17T04:35:35.490Z,57.30
2018-08-17T04:38:04.140Z,57.40
2018-08-17T04:40:32.775Z,57.30
2018-08-17T04:43:01.433Z,57.60
2018-08-17T04:45:30.118Z,57.60
2018-08-17T04:47:58.812Z,57.90
2018-08-17T04:50:27.448Z,58.30
2018-08-17T04:52:56.077Z,59.40
2018-08-17T04:55:24.726Z,59.70
2018-08-17T04:57:53.372Z,59.70
2018-08-17T05:00:22.040Z,59.30
2018-08-17T05:02:50.692Z,59.20
2018-08-17T05:05:19.363Z,59.20
2018-08-17T05:07:48.023Z,59.50
2018-08-17T05:10:16.692Z,59.10
2018-08-17T05:12:45.362Z,59.40
2018-08-17T05:15:14.014Z,59.20
2018-08-17T05:17:42.681Z,59.10
2018-08-17T05:20:11.350Z,59.20
2018-08-17T05:22:40.014Z,59.10
2018-08-17T05:25:08.694Z,59.20
2018-08-17T05:27:37.341Z,59.20
2018-08-17T05:30:06.015Z,59.10
2018-08-17T05:32:34.685Z,59.70
2018-08-17T05:35:03.370Z,59.10
2018-08-17T05:37:31.983Z,59.10
2018-08-17T05:40:00.743Z,58.80
2018-08-17T05:42:29.405Z,59.20
2018-08-17T05:44:58.101Z,58.80
2018-08-17T05:47:26.742Z,58.40
2018-08-17T05:49:55.402Z,58.40
2018-08-17T05:52:24.064Z,58.40
2018-08-17T05:54:52.729Z,59.20
2018-08-17T05:57:21.484Z,58.40
2018-08-17T05:59:50.189Z,58.00
2018-08-17T06:02:18.850Z,58.20
2018-08-17T06:04:47.524Z,57.60
2018-08-17T06:07:16.209Z,58.00
2018-08-17T06:09:44.952Z,58.20
2018-08-17T06:12:13.616Z,58.60
2018-08-17T06:14:42.382Z,58.40
2018-08-17T06:17:11.060Z,58.00
2018-08-17T06:19:39.963Z,58.10
2018-08-17T06:22:08.620Z,57.90
2018-08-17T06:24:37.282Z,57.70
2018-08-17T06:27:06.016Z,57.80
2018-08-17T06:29:34.735Z,57.90
2018-08-17T06:32:03.621Z,57.30
2018-08-17T06:34:32.561Z,57.40
2018-08-17T06:37:03.415Z,56.50
2018-08-17T06:39:32.294Z,57.10
2018-08-17T06:42:00.974Z,56.80
2018-08-17T06:44:31.149Z,57.00
2018-08-17T06:46:59.784Z,56.70
2018-08-17T06:49:28.555Z,57.50
2018-08-17T06:51:57.228Z,56.80
2018-08-17T06:54:25.991Z,56.80
2018-08-17T06:56:54.660Z,57.00
2018-08-17T06:59:23.331Z,56.70
2018-08-17T07:01:52.077Z,56.90
2018-08-17T07:04:20.735Z,56.80
2018-08-17T07:06:49.486Z,56.00
2018-08-17T07:09:18.260Z,56.40
2018-08-17T07:11:46.832Z,56.30
2018-08-17T07:14:15.478Z,56.10
2018-08-17T07:16:44.298Z,56.00
2018-08-17T07:21:50.534Z,56.00
2018-08-17T07:24:19.378Z,55.80
2018-08-17T07:26:48.100Z,56.00
2018-08-17T07:29:16.835Z,56.30
2018-08-17T07:31:45.588Z,56.80
2018-08-17T07:34:14.290Z,55.90
2018-08-17T07:36:43.068Z,55.70
2018-08-17T07:39:11.790Z,55.50
2018-08-17T07:41:40.651Z,55.30
2018-08-17T07:44:09.316Z,55.40
2018-08-17T07:46:38.113Z,55.10
2018-08-17T07:49:06.798Z,55.30
2018-08-17T07:51:35.564Z,55.10
2018-08-17T07:54:04.298Z,55.70
2018-08-17T07:56:33.025Z,54.90
2018-08-17T07:59:01.769Z,54.30
2018-08-17T08:01:30.495Z,54.90
2018-08-17T08:03:59.243Z,55.00
2018-08-17T08:06:28.057Z,54.50
2018-08-17T08:08:56.787Z,53.90
2018-08-17T08:11:25.586Z,54.10
2018-08-17T08:13:54.330Z,53.00
2018-08-17T08:16:23.098Z,53.10
2018-08-17T08:18:51.913Z,53.50
2018-08-17T08:21:20.643Z,53.00
2018-08-17T08:23:49.398Z,53.40
2018-08-17T08:26:18.144Z,53.00
2018-08-17T08:28:46.889Z,53.00
2018-08-17T08:31:15.608Z,53.00
2018-08-17T08:33:44.410Z,53.20
2018-08-17T08:36:13.221Z,53.10
2018-08-17T08:38:42.038Z,53.80
2018-08-17T08:41:10.798Z,54.60
2018-08-17T08:43:39.541Z,53.40
2018-08-17T08:46:08.290Z,53.80
2018-08-17T08:48:37.245Z,54.40
2018-08-17T08:51:06.358Z,53.30
2018-08-17T08:53:35.086Z,52.70
2018-08-17T08:56:03.919Z,52.40
2018-08-17T08:58:32.708Z,52.20
2018-08-17T09:01:01.520Z,51.90
2018-08-17T09:03:30.376Z,52.40
2018-08-17T09:05:59.170Z,51.30
2018-08-17T09:08:27.888Z,51.70
2018-08-17T09:10:56.576Z,50.10
2018-08-17T09:13:25.288Z,49.00
2018-08-17T09:18:28.896Z,45.60
2018-08-17T09:20:57.590Z,45.50
2018-08-17T09:23:26.528Z,45.30
2018-08-17T09:25:55.298Z,45.00
2018-08-17T09:28:24.196Z,44.20
2018-08-17T09:30:53.104Z,44.50
2018-08-17T09:33:21.854Z,43.20
2018-08-17T09:35:50.584Z,42.50
2018-08-17T09:38:19.315Z,42.20
2018-08-17T09:40:48.054Z,41.90
2018-08-17T09:43:16.856Z,41.40
2018-08-17T09:45:45.546Z,40.30
2018-08-17T09:48:14.265Z,40.00
2018-08-17T09:50:43.011Z,40.60
2018-08-17T09:53:11.770Z,40.10
2018-08-17T09:55:40.625Z,39.30
2018-08-17T09:58:09.411Z,41.00
2018-08-17T10:00:40.043Z,38.10
2018-08-17T10:03:14.398Z,38.30
2018-08-17T10:05:43.502Z,37.90
2018-08-17T10:08:37.655Z,37.90
2018-08-17T10:11:06.452Z,36.50
2018-08-17T10:13:35.257Z,37.70
2018-08-17T10:16:04.016Z,36.50
2018-08-17T10:18:40.040Z,36.40
2018-08-17T10:21:08.897Z,35.70
2018-08-17T10:23:37.516Z,35.30
2018-08-17T10:26:06.235Z,35.00
2018-08-17T10:28:35.002Z,35.00
2018-08-17T10:31:03.954Z,37.90
2018-08-17T10:33:32.745Z,35.90
2018-08-17T10:36:01.482Z,36.30
2018-08-17T10:38:30.224Z,33.90
2018-08-17T10:40:58.914Z,35.20
2018-08-17T10:43:27.658Z,34.60
2018-08-17T10:45:56.376Z,33.30
2018-08-17T10:48:25.118Z,33.70
2018-08-17T10:50:56.096Z,33.20
2018-08-17T10:53:25.918Z,35.60
2018-08-17T10:55:54.645Z,33.70
2018-08-17T10:58:23.870Z,33.30
2018-08-17T11:00:52.616Z,34.10
2018-08-17T11:03:21.394Z,33.50
2018-08-17T11:05:50.105Z,32.30
2018-08-17T11:08:18.862Z,31.90
2018-08-17T11:10:47.579Z,33.10
2018-08-17T11:13:16.290Z,32.60
2018-08-17T11:15:45.050Z,33.20
2018-08-17T11:18:13.770Z,31.00
2018-08-17T11:20:42.466Z,30.30
2018-08-17T11:23:11.386Z,31.30
2018-08-17T11:25:40.141Z,30.20
2018-08-17T11:28:08.960Z,30.60
2018-08-17T11:30:37.703Z,30.40
2018-08-17T11:33:06.965Z,30.60
2018-08-17T11:35:35.668Z,30.20
2018-08-17T11:38:04.580Z,30.00
2018-08-17T11:40:33.470Z,32.00
2018-08-17T11:43:02.206Z,31.20
2018-08-17T11:45:30.926Z,32.80
2018-08-17T11:47:59.666Z,33.40
2018-08-17T11:50:28.395Z,32.60
2018-08-17T11:52:58.903Z,33.90
2018-08-17T11:55:29.508Z,34.30
2018-08-17T11:57:58.222Z,34.30
2018-08-17T12:00:31.365Z,34.10
2018-08-17T12:03:00.086Z,36.20
2018-08-17T12:05:28.799Z,35.10
2018-08-17T12:07:57.510Z,35.10
2018-08-17T12:10:26.261Z,35.30
2018-08-17T12:12:58.008Z,34.80
2018-08-17T12:15:26.744Z,35.00
2018-08-17T12:17:55.499Z,35.10
2018-08-17T12:20:24.190Z,35.00
2018-08-17T12:22:52.955Z,35.00
2018-08-17T12:25:21.878Z,34.20
2018-08-17T12:27:58.794Z,34.70
2018-08-17T12:30:27.538Z,34.40
2018-08-17T12:32:56.638Z,34.30
2018-08-17T12:35:25.477Z,33.90
2018-08-17T12:37:58.584Z,35.00
2018-08-17T12:40:31.544Z,34.20
2018-08-17T12:43:00.267Z,34.80
2018-08-17T12:45:29.062Z,34.60
2018-08-17T12:47:57.791Z,35.70
2018-08-17T12:50:26.530Z,33.40
2018-08-17T12:52:55.228Z,33.40
2018-08-17T12:55:23.987Z,33.50
2018-08-17T12:57:52.790Z,33.60
2018-08-17T13:00:21.470Z,33.90
2018-08-17T13:02:50.230Z,33.40
2018-08-17T13:05:19.033Z,33.50
2018-08-17T13:07:47.844Z,33.70
2018-08-17T13:10:16.554Z,34.40
2018-08-17T13:12:53.023Z,34.20
2018-08-17T13:15:21.758Z,34.10
2018-08-17T13:17:50.594Z,34.10
2018-08-17T13:20:19.963Z,34.10
2018-08-17T13:22:49.210Z,34.20
2018-08-17T13:25:18.075Z,34.60
2018-08-17T13:27:46.763Z,34.00
2018-08-17T13:30:16.106Z,34.50
2018-08-17T13:32:45.061Z,34.10
2018-08-17T13:35:14.054Z,34.50
2018-08-17T13:37:43.496Z,34.10
2018-08-17T13:40:12.252Z,33.90
2018-08-17T13:42:41.073Z,34.20
2018-08-17T13:45:10.360Z,33.80
2018-08-17T13:47:39.227Z,34.20
2018-08-17T13:50:08.019Z,34.10
2018-08-17T13:52:36.797Z,34.40
2018-08-17T13:55:05.492Z,34.20
2018-08-17T13:57:34.244Z,34.50
2018-08-17T14:00:03.416Z,34.40
2018-08-17T14:02:32.203Z,34.30
2018-08-17T14:05:00.929Z,34.50
2018-08-17T14:07:29.635Z,35.30
2018-08-17T14:09:58.620Z,35.00
2018-08-17T14:12:27.313Z,35.30
2018-08-17T14:14:56.027Z,35.40
2018-08-17T14:17:24.932Z,35.80
2018-08-17T14:19:53.674Z,35.60
2018-08-17T14:22:22.701Z,35.00
2018-08-17T14:24:51.357Z,34.90
2018-08-17T14:27:20.113Z,35.40
2018-08-17T14:29:48.916Z,35.30
2018-08-17T14:32:17.722Z,35.20
2018-08-17T14:34:46.457Z,35.10
2018-08-17T14:37:15.184Z,35.90
2018-08-17T14:39:43.873Z,35.20
2018-08-17T14:42:12.846Z,34.90
2018-08-17T14:44:41.738Z,34.50
2018-08-17T14:47:10.468Z,34.40
2018-08-17T14:49:39.276Z,35.30
2018-08-17T14:52:08.000Z,35.30
2018-08-17T14:54:36.748Z,34.70
2018-08-17T14:57:05.500Z,34.50
2018-08-17T14:59:34.251Z,33.40
2018-08-17T15:02:02.994Z,32.80
2018-08-17T15:04:31.752Z,33.30
2018-08-17T15:07:00.499Z,33.50
2018-08-17T15:09:29.266Z,33.30
2018-08-17T15:11:58.457Z,33.50
2018-08-17T15:14:27.186Z,33.80
2018-08-17T15:16:55.967Z,33.20
2018-08-17T15:19:24.712Z,33.40
2018-08-17T15:21:53.465Z,34.60
2018-08-17T15:24:22.232Z,34.60
2018-08-17T15:26:50.970Z,34.00
2018-08-17T15:29:19.714Z,34.60
2018-08-17T15:31:48.505Z,34.80
2018-08-17T15:34:17.266Z,34.90
2018-08-17T15:36:45.979Z,34.30
2018-08-17T15:39:14.808Z,34.90
2018-08-17T15:41:45.162Z,34.60
2018-08-17T15:44:19.423Z,34.90
2018-08-17T15:46:48.157Z,35.50
2018-08-17T15:49:21.134Z,35.60
2018-08-17T15:51:49.916Z,35.40
2018-08-17T15:54:18.725Z,36.60
2018-08-17T15:56:47.445Z,36.10
2018-08-17T15:59:16.615Z,36.70
2018-08-17T16:01:45.465Z,36.90
2018-08-17T16:04:14.211Z,37.70
2018-08-17T16:06:42.978Z,38.20
2018-08-17T16:09:12.833Z,38.30
2018-08-17T16:11:41.761Z,38.00
2018-08-17T16:14:10.522Z,38.40
2018-08-17T16:16:39.321Z,38.40
2018-08-17T16:19:08.050Z,38.30
2018-08-17T16:21:36.805Z,38.00
2018-08-17T16:24:06.555Z,38.40
2018-08-17T16:26:35.479Z,38.20
2018-08-17T16:29:04.984Z,38.30
2018-08-17T16:31:40.558Z,38.50
2018-08-17T16:34:09.795Z,38.40
2018-08-17T16:36:40.905Z,38.40
2018-08-17T16:39:13.527Z,38.80
2018-08-17T16:41:42.353Z,38.70
2018-08-17T16:44:11.315Z,38.80
2018-08-17T16:46:41.481Z,39.20
2018-08-17T16:49:10.104Z,39.40
2018-08-17T16:51:39.069Z,39.60
2018-08-17T16:54:07.802Z,40.00
2018-08-17T16:56:36.781Z,40.00
2018-08-17T16:59:05.629Z,40.40
2018-08-17T17:01:34.338Z,40.50
2018-08-17T17:04:03.298Z,40.30
2018-08-17T17:06:32.206Z,40.50
2018-08-17T17:09:02.903Z,41.10
2018-08-17T17:11:31.628Z,40.60
2018-08-17T17:14:00.420Z,40.80
2018-08-17T17:16:39.572Z,40.80
2018-08-17T17:19:16.658Z,41.00
2018-08-17T17:21:46.790Z,41.10
2018-08-17T17:24:15.779Z,41.50
2018-08-17T17:26:44.763Z,41.60
2018-08-17T17:29:13.620Z,41.90
2018-08-17T17:31:42.918Z,42.60
2018-08-17T17:34:11.797Z,44.40
2018-08-17T17:36:40.516Z,46.10
2018-08-17T17:39:11.610Z,47.00
2018-08-17T17:41:40.378Z,47.80
2018-08-17T17:44:09.157Z,48.20
2018-08-17T17:46:38.455Z,48.40
2018-08-17T17:49:08.380Z,48.80
2018-08-17T17:51:37.106Z,49.30
2018-08-17T17:54:06.159Z,49.40
2018-08-17T17:56:34.896Z,49.60
2018-08-17T17:59:08.093Z,50.00
2018-08-17T18:01:36.885Z,50.00
2018-08-17T18:04:05.654Z,50.30
2018-08-17T18:06:34.393Z,50.30
2018-08-17T18:09:03.445Z,50.60
2018-08-17T18:11:32.321Z,50.60
2018-08-17T18:14:01.144Z,50.00
2018-08-17T18:16:29.856Z,50.30
2018-08-17T18:18:58.600Z,50.10
2018-08-17T18:21:30.737Z,50.30
2018-08-17T18:24:06.778Z,50.00
2018-08-17T18:26:35.665Z,50.50
2018-08-17T18:29:04.447Z,50.20
2018-08-17T18:31:33.196Z,50.00
2018-08-17T18:34:02.001Z,49.50
2018-08-17T18:36:30.823Z,49.50
2018-08-17T18:38:59.573Z,50.30
2018-08-17T18:41:28.504Z,50.20
2018-08-17T18:43:57.497Z,49.80
2018-08-17T18:46:26.229Z,49.00
2018-08-17T18:48:54.971Z,49.40
2018-08-17T18:51:23.827Z,49.80
2018-08-17T18:53:52.589Z,49.40
2018-08-17T18:56:21.634Z,49.20
2018-08-17T18:58:50.469Z,49.80
2018-08-17T19:01:19.326Z,49.90
2018-08-17T19:03:48.061Z,49.10
2018-08-17T19:06:16.830Z,49.70
2018-08-17T19:08:45.579Z,49.10
2018-08-17T19:11:14.733Z,49.80
2018-08-17T19:13:43.471Z,49.10
2018-08-17T19:16:12.306Z,49.10
2018-08-17T19:18:41.707Z,49.20
2018-08-17T19:21:13.002Z,48.80
2018-08-17T19:23:41.768Z,49.20
2018-08-17T19:26:10.940Z,49.50
2018-08-17T19:28:39.986Z,49.10
2018-08-17T19:31:08.796Z,49.20
2018-08-17T19:33:37.520Z,49.50
2018-08-17T19:36:06.339Z,49.50
2018-08-17T19:38:38.699Z,49.20
2018-08-17T19:41:07.488Z,49.70
2018-08-17T19:43:36.230Z,49.20
2018-08-17T19:46:05.348Z,50.10
2018-08-17T19:48:34.288Z,49.40
2018-08-17T19:51:07.262Z,49.40
2018-08-17T19:53:36.261Z,49.80
2018-08-17T19:56:05.043Z,50.10
2018-08-17T19:58:33.799Z,51.20
2018-08-17T20:01:02.763Z,49.70
2018-08-17T20:03:31.603Z,49.50
2018-08-17T20:06:00.442Z,49.50
2018-08-17T20:08:29.303Z,50.10
2018-08-17T20:10:58.031Z,49.70
2018-08-17T20:13:27.485Z,50.10
2018-08-17T20:15:56.191Z,50.20
2018-08-17T20:18:24.999Z,49.80
2018-08-17T20:20:53.824Z,49.90
2018-08-17T20:23:22.541Z,50.20
2018-08-17T20:25:51.385Z,50.00
2018-08-17T20:28:20.287Z,49.60
2018-08-17T20:30:49.068Z,50.30
2018-08-17T20:33:27.997Z,50.70
2018-08-17T20:35:57.274Z,50.20
2018-08-17T20:38:26.064Z,50.20
2018-08-17T20:40:58.521Z,50.20
2018-08-17T20:43:27.592Z,51.00
2018-08-17T20:45:56.352Z,50.90
2018-08-17T20:48:25.130Z,50.60
2018-08-17T20:50:53.962Z,50.80
2018-08-17T20:53:23.377Z,51.00
2018-08-17T20:55:52.102Z,51.40
2018-08-17T20:58:20.892Z,51.00
2018-08-17T21:00:49.582Z,51.50
2018-08-17T21:03:18.318Z,51.50
2018-08-17T21:05:47.040Z,51.40
2018-08-17T21:08:15.786Z,52.30
2018-08-17T21:10:44.540Z,52.00
2018-08-17T21:13:13.315Z,51.90
2018-08-17T21:15:42.081Z,52.10
2018-08-17T21:18:10.806Z,52.30
2018-08-17T21:20:39.548Z,51.90
2018-08-17T21:23:08.818Z,52.20
2018-08-17T21:25:37.578Z,52.60
2018-08-17T21:28:06.316Z,52.50
2018-08-17T21:30:34.998Z,53.60
2018-08-17T21:33:03.739Z,52.90
2018-08-17T21:35:32.502Z,53.00
2018-08-17T21:38:01.240Z,53.00
2018-08-17T21:40:30.627Z,53.70
2018-08-17T21:43:00.781Z,53.40
2018-08-17T21:45:29.568Z,53.30
2018-08-17T21:47:58.337Z,53.60
2018-08-17T21:50:27.042Z,53.70
2018-08-17T21:52:55.798Z,53.80
2018-08-17T21:55:24.520Z,53.80
2018-08-17T21:57:53.267Z,54.00
2018-08-17T22:00:30.362Z,53.60
2018-08-17T22:02:59.386Z,53.80
2018-08-17T22:05:31.270Z,53.80
2018-08-17T22:08:00.453Z,53.70
2018-08-17T22:10:29.746Z,54.10
2018-08-17T22:12:58.500Z,54.10
2018-08-17T22:15:28.960Z,54.30
2018-08-17T22:17:57.708Z,53.80
2018-08-17T22:20:26.447Z,53.80
2018-08-17T22:22:55.180Z,53.90
2018-08-17T22:25:23.905Z,54.00
2018-08-17T22:27:52.658Z,53.80
2018-08-17T22:30:25.571Z,54.00
2018-08-17T22:32:54.417Z,54.10
2018-08-17T22:35:23.263Z,54.50
2018-08-17T22:37:51.903Z,54.80
2018-08-17T22:40:20.639Z,54.80
2018-08-17T22:42:50.400Z,54.40
2018-08-17T22:45:19.099Z,54.50
2018-08-17T22:47:47.805Z,54.90
2018-08-17T22:50:16.594Z,55.00
2018-08-17T22:52:45.329Z,55.30
2018-08-17T22:55:14.053Z,55.30
2018-08-17T22:57:42.849Z,55.50
2018-08-17T23:00:20.945Z,55.70
2018-08-17T23:02:52.014Z,55.60
2018-08-17T23:05:23.984Z,55.90
2018-08-17T23:07:52.738Z,56.00
2018-08-17T23:10:22.603Z,56.10
2018-08-17T23:12:52.220Z,56.10
2018-08-17T23:15:20.944Z,56.10
2018-08-17T23:17:54.712Z,56.50
2018-08-17T23:20:28.939Z,56.40
2018-08-17T23:22:58.950Z,56.90
2018-08-17T23:25:27.794Z,56.50
2018-08-17T23:27:56.517Z,56.60
2018-08-17T23:30:25.284Z,56.10
2018-08-17T23:32:54.010Z,56.30
2018-08-17T23:35:22.754Z,56.40
2018-08-17T23:37:51.474Z,56.00
2018-08-17T23:40:20.227Z,56.10
2018-08-17T23:42:48.966Z,55.80
2018-08-17T23:45:18.374Z,55.90
2018-08-17T23:47:47.234Z,56.00
2018-08-17T23:50:16.591Z,56.00
2018-08-17T23:52:45.328Z,56.30
2018-08-17T23:55:15.754Z,56.20
2018-08-17T23:57:44.495Z,56.30
